createdAt,value
2019-04-03T00:00:17.037Z,5.08
2019-04-03T00:02:48.462Z,5.65
2019-04-03T00:05:19.845Z,4.87
2019-04-03T00:07:51.206Z,5.23
2019-04-03T00:10:22.953Z,6.20
2019-04-03T00:12:54.095Z,5.03
2019-04-03T00:15:25.227Z,4.65
2019-04-03T00:17:56.640Z,5.15
2019-04-03T00:20:28.142Z,4.53
2019-04-03T00:22:59.695Z,4.62
2019-04-03T00:25:31.077Z,5.17
2019-04-03T00:28:02.556Z,5.30
2019-04-03T00:30:34.152Z,5.17
2019-04-03T00:33:05.537Z,4.65
2019-04-03T00:35:36.606Z,4.72
2019-04-03T00:38:07.903Z,4.70
2019-04-03T00:40:39.264Z,4.97
2019-04-03T00:43:10.501Z,4.67
2019-04-03T00:45:42.242Z,4.70
2019-04-03T00:48:13.487Z,4.33
2019-04-03T00:50:45.370Z,4.62
2019-04-03T00:53:16.393Z,4.47
2019-04-03T00:55:47.536Z,4.62
2019-04-03T00:58:34.121Z,4.58
2019-04-03T01:01:07.232Z,4.77
2019-04-03T01:03:38.466Z,4.65
2019-04-03T01:06:10.135Z,4.20
2019-04-03T01:08:41.890Z,4.20
2019-04-03T01:11:13.649Z,4.45
2019-04-03T01:13:44.682Z,4.20
2019-04-03T01:16:16.077Z,4.28
2019-04-03T01:18:47.502Z,4.50
2019-04-03T01:21:18.874Z,4.87
2019-04-03T01:23:50.319Z,4.33
2019-04-03T01:26:22.047Z,4.37
2019-04-03T01:28:53.117Z,4.25
2019-04-03T01:31:24.495Z,4.65
2019-04-03T01:33:55.884Z,4.17
2019-04-03T01:36:27.439Z,4.40
2019-04-03T01:38:58.680Z,4.28
2019-04-03T01:41:30.187Z,4.28
2019-04-03T01:44:01.688Z,4.22
2019-04-03T01:46:32.923Z,4.10
2019-04-03T01:49:04.538Z,4.42
2019-04-03T01:51:35.863Z,4.22
2019-04-03T01:54:07.412Z,4.55
2019-04-03T01:56:38.752Z,4.10
2019-04-03T01:59:10.749Z,4.50
2019-04-03T02:01:42.144Z,4.47
2019-04-03T02:04:13.606Z,4.40
2019-04-03T02:06:46.156Z,4.40
2019-04-03T02:09:18.878Z,4.87
2019-04-03T02:11:49.989Z,5.10
2019-04-03T02:14:22.136Z,4.70
2019-04-03T02:16:54.086Z,4.67
2019-04-03T02:19:26.059Z,4.45
2019-04-03T02:21:58.482Z,5.22
2019-04-03T02:24:31.768Z,5.80
2019-04-03T02:27:03.619Z,5.42
2019-04-03T02:29:34.949Z,5.85
2019-04-03T02:32:06.385Z,5.42
2019-04-03T02:34:37.700Z,5.20
2019-04-03T02:37:08.962Z,5.00
2019-04-03T02:39:40.678Z,5.60
2019-04-03T02:42:11.933Z,5.53
2019-04-03T02:44:43.778Z,5.42
2019-04-03T02:47:15.254Z,5.92
2019-04-03T02:49:46.686Z,6.03
2019-04-03T02:52:17.826Z,6.28
2019-04-03T02:54:49.200Z,5.60
2019-04-03T02:57:20.833Z,5.30
2019-04-03T02:59:52.134Z,5.47
2019-04-03T03:02:23.530Z,5.08
2019-04-03T03:04:55.575Z,4.85
2019-04-03T03:07:27.240Z,5.37
2019-04-03T03:09:58.595Z,5.50
2019-04-03T03:12:30.358Z,5.80
2019-04-03T03:15:02.055Z,6.55
2019-04-03T03:17:33.984Z,5.97
2019-04-03T03:20:07.694Z,7.42
2019-04-03T03:22:39.442Z,7.17
2019-04-03T03:25:10.488Z,6.30
2019-04-03T03:27:42.663Z,5.58
2019-04-03T03:30:33.053Z,5.83
2019-04-03T03:32:47.286Z,6.92
2019-04-03T03:35:28.110Z,7.50
2019-04-03T03:37:52.143Z,6.47
2019-04-03T03:40:23.680Z,7.22
2019-04-03T03:42:55.048Z,6.90
2019-04-03T03:45:26.390Z,6.87
2019-04-03T03:47:57.916Z,7.05
2019-04-03T03:50:31.863Z,7.05
2019-04-03T03:53:03.405Z,7.17
2019-04-03T03:55:34.976Z,6.67
2019-04-03T03:58:06.119Z,7.35
2019-04-03T04:00:37.728Z,7.58
2019-04-03T04:03:10.824Z,6.92
2019-04-03T04:05:42.104Z,6.97
2019-04-03T04:08:13.124Z,6.60
2019-04-03T04:10:45.329Z,7.50
2019-04-03T04:13:17.720Z,7.65
2019-04-03T04:15:49.205Z,7.37
2019-04-03T04:18:23.157Z,7.53
2019-04-03T04:20:53.703Z,7.15
2019-04-03T04:23:25.305Z,6.60
2019-04-03T04:25:56.828Z,8.25
2019-04-03T04:28:28.448Z,7.47
2019-04-03T04:30:59.871Z,7.70
2019-04-03T04:33:31.302Z,7.80
2019-04-03T04:36:02.667Z,7.10
2019-04-03T04:38:34.122Z,7.78
2019-04-03T04:41:05.931Z,6.90
2019-04-03T04:43:37.650Z,7.25
2019-04-03T04:46:10.621Z,6.92
2019-04-03T04:48:42.616Z,7.50
2019-04-03T04:51:14.016Z,6.83
2019-04-03T04:53:45.435Z,7.33
2019-04-03T04:56:16.802Z,7.90
2019-04-03T04:58:48.415Z,8.30
2019-04-03T05:01:19.885Z,7.20
2019-04-03T05:03:53.461Z,7.58
2019-04-03T05:06:24.699Z,7.00
2019-04-03T05:08:55.943Z,6.53
2019-04-03T05:11:27.494Z,6.75
2019-04-03T05:13:58.952Z,6.50
2019-04-03T05:16:30.505Z,5.78
2019-04-03T05:19:09.611Z,5.50
2019-04-03T05:21:34.452Z,5.40
2019-04-03T05:24:13.136Z,6.05
2019-04-03T05:26:38.962Z,5.92
2019-04-03T05:29:10.736Z,6.05
2019-04-03T05:31:42.075Z,4.90
2019-04-03T05:34:13.723Z,3.97
2019-04-03T05:36:46.833Z,4.05
2019-04-03T05:39:18.581Z,4.22
2019-04-03T05:41:50.181Z,4.03
2019-04-03T05:44:23.509Z,4.28
2019-04-03T05:46:54.365Z,3.60
2019-04-03T05:49:25.709Z,3.72
2019-04-03T05:51:57.259Z,3.70
2019-04-03T05:54:29.008Z,3.77
2019-04-03T05:57:01.505Z,3.77
2019-04-03T05:59:33.797Z,3.40
2019-04-03T06:02:14.983Z,2.95
2019-04-03T06:04:40.168Z,3.35
2019-04-03T06:07:11.071Z,3.40
2019-04-03T06:09:42.343Z,3.20
2019-04-03T06:12:14.477Z,3.40
2019-04-03T06:14:49.487Z,3.80
2019-04-03T06:17:20.050Z,3.72
2019-04-03T06:19:51.701Z,3.22
2019-04-03T06:22:22.950Z,3.77
2019-04-03T06:24:56.432Z,3.50
2019-04-03T06:27:28.110Z,3.60
2019-04-03T06:30:00.306Z,3.40
2019-04-03T06:32:32.240Z,2.95
2019-04-03T06:35:03.611Z,2.75
2019-04-03T06:37:34.958Z,2.87
2019-04-03T06:40:08.945Z,3.50
2019-04-03T06:42:40.032Z,2.87
2019-04-03T06:45:11.654Z,2.40
2019-04-03T06:47:43.363Z,2.22
2019-04-03T06:50:17.387Z,2.20
2019-04-03T06:52:47.768Z,2.25
2019-04-03T06:55:19.520Z,2.05
2019-04-03T06:57:51.276Z,2.62
2019-04-03T07:00:23.466Z,2.40
2019-04-03T07:02:55.009Z,2.30
2019-04-03T07:05:28.070Z,2.00
2019-04-03T07:08:00.837Z,2.43
2019-04-03T07:10:32.729Z,2.10
2019-04-03T07:13:03.873Z,2.35
2019-04-03T07:15:35.194Z,2.30
2019-04-03T07:18:07.293Z,2.27
2019-04-03T07:20:38.850Z,2.12
2019-04-03T07:23:10.568Z,2.07
2019-04-03T07:25:41.754Z,2.25
2019-04-03T07:28:14.831Z,2.08
2019-04-03T07:30:46.002Z,2.80
2019-04-03T07:33:17.630Z,2.12
2019-04-03T07:35:49.296Z,2.45
2019-04-03T07:38:22.209Z,2.20
2019-04-03T07:40:53.612Z,2.22
2019-04-03T07:43:26.863Z,2.67
2019-04-03T07:45:58.290Z,2.47
2019-04-03T07:48:32.702Z,2.20
2019-04-03T07:51:03.122Z,2.42
2019-04-03T07:53:34.305Z,2.08
2019-04-03T07:56:06.735Z,2.42
2019-04-03T07:58:39.676Z,2.10
2019-04-03T08:01:11.215Z,2.40
2019-04-03T08:03:43.002Z,2.10
2019-04-03T08:06:14.677Z,2.05
2019-04-03T08:08:46.052Z,1.87
2019-04-03T08:11:17.686Z,1.70
2019-04-03T08:13:50.264Z,1.52
2019-04-03T08:21:21.889Z,2.02
2019-04-03T08:28:53.903Z,1.50
2019-04-03T08:36:27.146Z,2.67
2019-04-03T08:41:28.345Z,2.22
2019-04-03T08:44:00.808Z,2.45
2019-04-03T08:46:32.974Z,1.62
2019-04-03T08:49:04.050Z,1.87
2019-04-03T08:51:35.073Z,1.83
2019-04-03T08:56:37.980Z,1.70
2019-04-03T08:59:12.540Z,1.62
2019-04-03T09:01:42.720Z,1.80
2019-04-03T09:06:44.391Z,1.80
2019-04-03T09:16:47.037Z,2.90
2019-04-03T09:19:21.543Z,2.00
2019-04-03T09:24:23.916Z,2.40
2019-04-03T09:29:25.412Z,1.85
2019-04-03T09:34:29.948Z,1.80
2019-04-03T09:39:30.512Z,2.10
2019-04-03T09:42:02.498Z,1.90
2019-04-03T09:44:34.192Z,2.05
2019-04-03T09:49:38.266Z,2.00
2019-04-03T09:54:39.711Z,1.70
2019-04-03T09:59:41.695Z,2.30
2019-04-03T10:04:43.452Z,1.53
2019-04-03T10:12:15.369Z,2.07
2019-04-03T10:17:17.151Z,1.72
2019-04-03T10:22:16.854Z,1.90
2019-04-03T10:24:48.684Z,2.00
2019-04-03T10:29:50.830Z,2.80
2019-04-03T10:37:23.407Z,2.00
2019-04-03T10:42:24.819Z,2.27
2019-04-03T10:47:39.488Z,2.20
2019-04-03T10:52:30.535Z,2.02
2019-04-03T10:57:33.950Z,2.02
2019-04-03T11:07:39.707Z,2.70
2019-04-03T11:12:41.213Z,2.25
2019-04-03T11:15:12.886Z,2.47
2019-04-03T11:17:44.389Z,2.60
2019-04-03T11:20:15.737Z,2.12
2019-04-03T11:22:48.285Z,2.00
2019-04-03T11:25:20.477Z,2.10
2019-04-03T11:27:51.772Z,1.90
2019-04-03T11:30:24.770Z,2.60
2019-04-03T11:32:56.026Z,2.15
2019-04-03T11:35:28.064Z,2.25
2019-04-03T11:38:11.185Z,2.22
2019-04-03T11:40:32.313Z,2.15
2019-04-03T11:43:04.003Z,2.20
2019-04-03T11:45:36.485Z,2.92
2019-04-03T11:48:08.314Z,2.47
2019-04-03T11:50:40.235Z,2.25
2019-04-03T11:53:11.847Z,2.17
2019-04-03T11:55:43.518Z,2.00
2019-04-03T11:58:14.674Z,1.72
2019-04-03T12:00:48.016Z,2.00
2019-04-03T12:03:19.313Z,2.30
2019-04-03T12:05:50.698Z,2.33
2019-04-03T12:08:22.118Z,2.30
2019-04-03T12:10:53.966Z,3.25
2019-04-03T12:13:25.510Z,10.78
2019-04-03T12:15:58.406Z,3.22
2019-04-03T12:18:33.289Z,5.83
2019-04-03T12:21:03.251Z,3.15
2019-04-03T12:23:39.380Z,3.60
2019-04-03T12:26:12.977Z,3.40
2019-04-03T12:28:44.777Z,3.37
2019-04-03T12:31:16.315Z,2.90
2019-04-03T12:33:54.844Z,2.60
2019-04-03T12:36:21.433Z,2.22
2019-04-03T12:38:55.404Z,3.67
2019-04-03T12:41:27.500Z,3.10
2019-04-03T12:43:59.526Z,2.20
2019-04-03T12:46:37.364Z,2.10
2019-04-03T12:49:08.833Z,1.90
2019-04-03T12:51:40.260Z,2.07
2019-04-03T12:54:13.401Z,2.40
2019-04-03T12:56:44.693Z,2.33
2019-04-03T12:59:16.219Z,2.00
2019-04-03T13:01:49.230Z,2.08
2019-04-03T13:04:21.131Z,2.42
2019-04-03T13:06:52.511Z,2.58
2019-04-03T13:09:23.853Z,2.90
2019-04-03T13:11:55.414Z,2.67
2019-04-03T13:14:27.677Z,2.83
2019-04-03T13:16:59.955Z,2.53
2019-04-03T13:19:31.000Z,2.50
2019-04-03T13:22:03.067Z,2.37
2019-04-03T13:24:34.716Z,2.80
2019-04-03T13:27:06.167Z,3.40
2019-04-03T13:29:39.727Z,2.75
2019-04-03T13:32:10.743Z,2.70
2019-04-03T13:34:43.198Z,2.80
2019-04-03T13:37:14.637Z,2.58
2019-04-03T13:39:48.403Z,2.50
2019-04-03T13:42:19.908Z,3.10
2019-04-03T13:44:51.897Z,2.95
2019-04-03T13:47:23.300Z,3.33
2019-04-03T13:49:55.315Z,2.50
2019-04-03T13:52:38.695Z,2.27
2019-04-03T13:55:00.086Z,2.77
2019-04-03T13:57:33.771Z,2.47
2019-04-03T14:00:17.212Z,2.12
2019-04-03T14:02:40.138Z,2.52
2019-04-03T14:05:11.363Z,2.60
2019-04-03T14:07:43.867Z,2.47
2019-04-03T14:10:15.540Z,2.30
2019-04-03T14:12:47.190Z,2.42
2019-04-03T14:15:20.335Z,2.83
2019-04-03T14:17:56.583Z,2.90
2019-04-03T14:20:26.917Z,2.92
2019-04-03T14:22:58.695Z,2.73
2019-04-03T14:25:35.133Z,2.77
2019-04-03T14:28:03.430Z,2.65
2019-04-03T14:30:35.447Z,2.27
2019-04-03T14:33:06.822Z,2.60
2019-04-03T14:35:48.911Z,2.17
2019-04-03T14:38:12.428Z,2.22
2019-04-03T14:40:44.579Z,2.17
2019-04-03T14:43:16.825Z,2.40
2019-04-03T14:45:48.492Z,2.47
2019-04-03T14:48:20.585Z,2.35
2019-04-03T14:50:52.117Z,2.37
2019-04-03T14:53:23.111Z,3.33
2019-04-03T14:55:54.603Z,1.82
2019-04-03T14:58:27.572Z,2.37
2019-04-03T15:00:59.691Z,2.17
2019-04-03T15:03:33.527Z,2.40
2019-04-03T15:06:04.091Z,2.15
2019-04-03T15:08:35.228Z,2.12
2019-04-03T15:11:06.734Z,2.02
2019-04-03T15:13:38.034Z,2.03
2019-04-03T15:16:09.901Z,2.17
2019-04-03T15:18:42.970Z,3.10
2019-04-03T15:21:14.555Z,4.95
2019-04-03T15:23:46.303Z,2.75
2019-04-03T15:26:21.824Z,3.17
2019-04-03T15:28:52.457Z,3.97
2019-04-03T15:31:25.546Z,15.08
2019-04-03T15:33:57.663Z,9.60
2019-04-03T15:36:28.867Z,4.17
2019-04-03T15:39:00.036Z,3.20
2019-04-03T15:41:34.173Z,3.42
2019-04-03T15:44:04.933Z,2.80
2019-04-03T15:46:38.249Z,3.40
2019-04-03T15:49:08.895Z,21.52
2019-04-03T15:51:41.064Z,3.72
2019-04-03T15:54:12.442Z,9.50
2019-04-03T15:56:44.943Z,3.98
2019-04-03T15:59:17.671Z,3.02
2019-04-03T16:01:49.293Z,3.35
2019-04-03T16:04:21.809Z,3.40
2019-04-03T16:06:53.976Z,4.00
2019-04-03T16:09:25.651Z,3.95
2019-04-03T16:11:59.743Z,4.35
2019-04-03T16:14:30.252Z,10.38
2019-04-03T16:17:02.565Z,12.67
2019-04-03T16:19:35.245Z,6.47
2019-04-03T16:22:06.999Z,7.10
2019-04-03T16:24:38.735Z,7.03
2019-04-03T16:27:09.760Z,12.35
2019-04-03T16:29:41.879Z,13.18
2019-04-03T16:32:13.786Z,13.60
2019-04-03T16:34:45.562Z,6.67
2019-04-03T16:37:16.702Z,9.03
2019-04-03T16:39:48.113Z,8.25
2019-04-03T16:42:20.217Z,6.08
2019-04-03T16:44:51.961Z,7.17
2019-04-03T16:47:24.634Z,6.40
2019-04-03T16:49:57.413Z,5.90
2019-04-03T16:52:30.282Z,6.40
2019-04-03T16:55:02.261Z,10.18
2019-04-03T16:57:33.535Z,6.28
2019-04-03T17:00:08.427Z,6.67
2019-04-03T17:02:40.261Z,7.75
2019-04-03T17:05:13.101Z,7.42
2019-04-03T17:07:45.093Z,7.87
2019-04-03T17:10:16.627Z,6.92
2019-04-03T17:12:49.581Z,6.80
2019-04-03T17:15:21.789Z,6.40
2019-04-03T17:17:53.645Z,6.80
2019-04-03T17:20:25.091Z,6.62
2019-04-03T17:22:56.516Z,6.15
2019-04-03T17:25:38.250Z,6.37
2019-04-03T17:28:06.091Z,7.15
2019-04-03T17:30:34.293Z,6.40
2019-04-03T17:33:05.731Z,7.25
2019-04-03T17:35:37.002Z,6.58
2019-04-03T17:38:08.424Z,6.78
2019-04-03T17:40:39.764Z,7.35
2019-04-03T17:43:11.266Z,7.95
2019-04-03T17:45:46.133Z,9.30
2019-04-03T17:48:17.027Z,8.85
2019-04-03T17:50:49.472Z,7.87
2019-04-03T17:53:21.433Z,10.00
2019-04-03T17:55:52.374Z,10.55
2019-04-03T17:58:23.924Z,11.83
2019-04-03T18:00:54.809Z,10.18
2019-04-03T18:03:26.135Z,10.20
2019-04-03T18:05:57.586Z,10.63
2019-04-03T18:08:29.113Z,8.80
2019-04-03T18:11:00.464Z,9.98
2019-04-03T18:13:31.813Z,9.17
2019-04-03T18:16:03.050Z,9.43
2019-04-03T18:18:34.507Z,8.85
2019-04-03T18:21:06.057Z,9.60
2019-04-03T18:23:37.393Z,9.93
2019-04-03T18:26:08.651Z,9.43
2019-04-03T18:28:40.211Z,10.30
2019-04-03T18:31:11.796Z,11.05
2019-04-03T18:33:44.239Z,11.63
2019-04-03T18:36:15.791Z,11.63
2019-04-03T18:38:47.338Z,11.57
2019-04-03T18:41:18.683Z,12.53
2019-04-03T18:43:50.247Z,11.95
2019-04-03T18:46:31.564Z,11.65
2019-04-03T18:48:58.858Z,10.35
2019-04-03T18:51:27.570Z,9.75
2019-04-03T18:53:59.122Z,10.37
2019-04-03T18:56:32.067Z,10.72
2019-04-03T18:59:03.462Z,10.72
2019-04-03T19:01:34.806Z,10.35
2019-04-03T19:04:07.203Z,9.77
2019-04-03T19:06:39.144Z,9.20
2019-04-03T19:09:10.435Z,9.98
2019-04-03T19:11:42.242Z,9.38
2019-04-03T19:14:21.432Z,9.70
2019-04-03T19:16:49.690Z,10.20
2019-04-03T19:19:22.779Z,11.03
2019-04-03T19:21:52.816Z,10.53
2019-04-03T19:24:25.540Z,11.93
2019-04-03T19:26:56.896Z,12.87
2019-04-03T19:29:28.244Z,11.43
2019-04-03T19:31:59.606Z,11.25
2019-04-03T19:34:31.377Z,10.65
2019-04-03T19:37:03.551Z,10.68
2019-04-03T19:39:37.425Z,10.85
2019-04-03T19:42:07.487Z,11.08
2019-04-03T19:44:41.688Z,9.90
2019-04-03T19:47:12.705Z,10.60
2019-04-03T19:49:47.887Z,10.00
2019-04-03T19:52:18.579Z,11.12
2019-04-03T19:54:51.525Z,10.58
2019-04-03T19:57:23.120Z,11.35
2019-04-03T19:59:54.670Z,11.48
2019-04-03T20:02:27.451Z,11.35
2019-04-03T20:04:58.799Z,11.00
2019-04-03T20:07:30.145Z,11.33
2019-04-03T20:10:03.256Z,10.72
2019-04-03T20:12:35.826Z,10.48
2019-04-03T20:15:07.877Z,10.15
2019-04-03T20:17:39.905Z,9.78
2019-04-03T20:20:11.130Z,10.25
2019-04-03T20:22:42.778Z,9.78
2019-04-03T20:25:15.193Z,9.58
2019-04-03T20:27:47.367Z,9.70
2019-04-03T20:30:20.475Z,9.33
2019-04-03T20:32:52.027Z,9.53
2019-04-03T20:35:22.959Z,8.93
2019-04-03T20:37:56.680Z,9.63
2019-04-03T20:40:27.202Z,8.78
2019-04-03T20:42:58.592Z,9.40
2019-04-03T20:45:30.002Z,9.10
2019-04-03T20:48:01.555Z,8.93
2019-04-03T20:50:33.107Z,8.23
2019-04-03T20:53:04.501Z,8.10
2019-04-03T20:55:36.099Z,8.50
2019-04-03T20:58:07.206Z,8.50
2019-04-03T21:00:38.910Z,8.30
2019-04-03T21:03:12.700Z,8.05
2019-04-03T21:05:43.145Z,6.85
2019-04-03T21:08:15.004Z,6.83
2019-04-03T21:14:17.709Z,6.12
2019-04-03T21:16:49.262Z,6.17
2019-04-03T21:19:47.644Z,6.28
2019-04-03T21:22:18.993Z,5.90
2019-04-03T21:25:45.228Z,6.07
2019-04-03T21:28:16.469Z,6.25
2019-04-03T21:30:48.335Z,5.95
2019-04-03T21:33:21.937Z,6.20
2019-04-03T21:35:54.693Z,6.03
2019-04-03T21:39:14.301Z,5.75
2019-04-03T21:41:45.544Z,6.12
2019-04-03T21:48:35.764Z,6.40
2019-04-03T21:51:06.936Z,6.03
2019-04-03T21:53:38.664Z,6.73
2019-04-03T21:56:09.808Z,6.85
2019-04-03T21:58:56.167Z,6.80
2019-04-03T22:01:27.542Z,6.90
2019-04-03T22:03:59.011Z,7.12
2019-04-03T22:06:30.569Z,6.72
2019-04-03T22:09:02.119Z,6.22
2019-04-03T22:11:35.460Z,6.70
2019-04-03T22:14:06.960Z,6.50
2019-04-03T22:16:38.512Z,6.85
2019-04-03T22:19:09.925Z,6.78
2019-04-03T22:21:41.245Z,6.42
2019-04-03T22:24:12.878Z,6.30
2019-04-03T22:26:44.299Z,6.60
2019-04-03T22:29:15.978Z,7.20
2019-04-03T22:31:47.152Z,7.20
2019-04-03T22:34:18.686Z,6.80
2019-04-03T22:36:50.023Z,6.45
2019-04-03T22:39:21.294Z,6.80
2019-04-03T22:41:52.708Z,6.58
2019-04-03T22:44:24.068Z,6.10
2019-04-03T22:46:55.610Z,6.30
2019-04-03T22:49:26.960Z,6.17
2019-04-03T22:51:58.211Z,5.67
2019-04-03T22:54:29.616Z,5.63
2019-04-03T22:57:01.109Z,5.62
2019-04-03T22:59:32.443Z,5.60
2019-04-03T23:02:03.875Z,5.92
2019-04-03T23:04:35.082Z,6.03
2019-04-03T23:07:06.668Z,5.42
2019-04-03T23:09:38.375Z,5.87
2019-04-03T23:12:09.919Z,6.22
2019-04-03T23:14:41.480Z,5.95
2019-04-03T23:17:13.926Z,6.55
2019-04-03T23:19:46.280Z,6.47
2019-04-03T23:22:17.798Z,6.15
2019-04-03T23:24:49.226Z,6.42
2019-04-03T23:27:20.604Z,6.60
2019-04-03T23:29:52.034Z,6.17
2019-04-03T23:32:23.379Z,6.50
2019-04-03T23:34:54.929Z,6.65
2019-04-03T23:37:26.269Z,7.40
2019-04-03T23:39:59.147Z,8.45
2019-04-03T23:42:31.026Z,8.65
2019-04-03T23:45:02.367Z,8.78
2019-04-03T23:47:33.926Z,9.90
2019-04-03T23:50:06.921Z,10.80
2019-04-03T23:52:37.951Z,11.33
2019-04-03T23:55:09.613Z,12.40
2019-04-03T23:57:40.958Z,13.28
